Aviation Digital Data Service (ADDS)

Output produced by METARs form (1159 UTC 26 March 2019)
found at http://www.aviationweather.gov/metar/data/
 
METAR text: OPLA 261125Z 31011KT 8000 FEW100 28/07 Q1013 RMK QFE987 RMK A29.87
Conditions at: OPLA (LAHORE (CIV/MIL), PK) observed 1125 UTC 26 March 2019
Temperature: 28.0°C (82°F)
Dewpoint: 7.0°C (45°F) [RH = 27%]
Pressure (altimeter): 29.91 inches Hg (1013.0 mb)
Winds: from the NW (310 degrees) at 13 MPH (11 knots; 5.7 m/s)
Visibility: 5 miles ( 8 km)
Ceiling: at least 12,000 feet AGL
Clouds: few clouds at 10000 feet AGL
Weather: no significant weather observed at this time

METAR text: OPLA 261055Z 28012KT 8000 FEW100 29/07 Q1013 NOSIG RMK QFE987 RMK A29.88
Conditions at: OPLA (LAHORE (CIV/MIL), PK) observed 1055 UTC 26 March 2019
Temperature: 29.0°C (84°F)
Dewpoint: 7.0°C (45°F) [RH = 25%]
Pressure (altimeter): 29.91 inches Hg (1013.0 mb)
Winds: from the W (280 degrees) at 14 MPH (12 knots; 6.2 m/s)
Visibility: 5 miles ( 8 km)
Ceiling: at least 12,000 feet AGL
Clouds: few clouds at 10000 feet AGL
Weather: no significant weather observed at this time

METAR text: OPLA 261025Z 27010KT 7000 FEW100 29/07 Q1013 RMK QFE987 RMK A29.89
Conditions at: OPLA (LAHORE (CIV/MIL), PK) observed 1025 UTC 26 March 2019
Temperature: 29.0°C (84°F)
Dewpoint: 7.0°C (45°F) [RH = 25%]
Pressure (altimeter): 29.91 inches Hg (1013.0 mb)
Winds: from the W (270 degrees) at 12 MPH (10 knots; 5.1 m/s)
Visibility: 4 miles ( 7 km)
Ceiling: at least 12,000 feet AGL
Clouds: few clouds at 10000 feet AGL
Weather: no significant weather observed at this time

METAR text: OPLA 260955Z 27011KT 7000 FEW100 29/07 Q1013 BECMG 8000 RMK QFE987 RMK A29.89
Conditions at: OPLA (LAHORE (CIV/MIL), PK) observed 0955 UTC 26 March 2019
Temperature: 29.0°C (84°F)
Dewpoint: 7.0°C (45°F) [RH = 25%]
Pressure (altimeter): 29.91 inches Hg (1013.0 mb)
Winds: from the W (270 degrees) at 13 MPH (11 knots; 5.7 m/s)
Visibility: 4 miles ( 7 km)
Ceiling: at least 12,000 feet AGL
Clouds: few clouds at 10000 feet AGL
Weather: no significant weather observed at this time

METAR text: OPLA 260925Z 28011KT 6000 FEW100 29/07 Q1013 RMK QFE987 RMK A29.90
Conditions at: OPLA (LAHORE (CIV/MIL), PK) observed 0925 UTC 26 March 2019
Temperature: 29.0°C (84°F)
Dewpoint: 7.0°C (45°F) [RH = 25%]
Pressure (altimeter): 29.91 inches Hg (1013.0 mb)
Winds: from the W (280 degrees) at 13 MPH (11 knots; 5.7 m/s)
Visibility: 4 miles ( 6 km)
Ceiling: at least 12,000 feet AGL
Clouds: few clouds at 10000 feet AGL
Weather: no significant weather observed at this time

METAR text: OPLA 260855Z 29009KT 6000 FEW100 29/07 Q1013 BECMG 7000 RMK QFE987 RMK A29.91
Conditions at: OPLA (LAHORE (CIV/MIL), PK) observed 0855 UTC 26 March 2019
Temperature: 29.0°C (84°F)
Dewpoint: 7.0°C (45°F) [RH = 25%]
Pressure (altimeter): 29.91 inches Hg (1013.0 mb)
Winds: from the WNW (290 degrees) at 10 MPH (9 knots; 4.6 m/s)
Visibility: 4 miles ( 6 km)
Ceiling: at least 12,000 feet AGL
Clouds: few clouds at 10000 feet AGL
Weather: no significant weather observed at this time

METAR text: OPLA 260825Z 30008KT 5000 HZ NSC 28/08 Q1014 RMK QFE988 RMK A29.92
Conditions at: OPLA (LAHORE (CIV/MIL), PK) observed 0825 UTC 26 March 2019
Temperature: 28.0°C (82°F)
Dewpoint: 8.0°C (46°F) [RH = 28%]
Pressure (altimeter): 29.94 inches Hg (1014.0 mb)
Winds: from the WNW (300 degrees) at 9 MPH (8 knots; 4.1 m/s)
Visibility: 3 miles ( 5 km)
Ceiling: at least 12,000 feet AGL
Clouds: sky clear below 12,000 feet AGL
Weather: HZ  (haze)

METAR text: OPLA 260755Z 32010KT 5000 HZ NSC 28/08 Q1014 BECMG 6000 RMK QFE988 RMK A29.92
Conditions at: OPLA (LAHORE (CIV/MIL), PK) observed 0755 UTC 26 March 2019
Temperature: 28.0°C (82°F)
Dewpoint: 8.0°C (46°F) [RH = 28%]
Pressure (altimeter): 29.94 inches Hg (1014.0 mb)
Winds: from the NW (320 degrees) at 12 MPH (10 knots; 5.1 m/s)
Visibility: 3 miles ( 5 km)
Ceiling: at least 12,000 feet AGL
Clouds: sky clear below 12,000 feet AGL
Weather: HZ  (haze)

METAR text: OPLA 260725Z 32008KT 4000 HZ NSC 27/09 Q1014 RMK QFE988 RMK A29.95 METAR
Conditions at: OPLA (LAHORE (CIV/MIL), PK) observed 0725 UTC 26 March 2019
Temperature: 27.0°C (81°F)
Dewpoint: 9.0°C (48°F) [RH = 32%]
Pressure (altimeter): 29.94 inches Hg (1014.0 mb)
Winds: from the NW (320 degrees) at 9 MPH (8 knots; 4.1 m/s)
Visibility: 2.49 miles (4.01 km)
Ceiling: at least 12,000 feet AGL
Clouds: sky clear below 12,000 feet AGL
Weather: HZ  (haze)

METAR text: OPLA 260659Z 32009KT 4000 HZ NSC 26/09 Q1014 BECMG 5000 RMK QFE989 RMK A29.95
Conditions at: OPLA (LAHORE (CIV/MIL), PK) observed 0659 UTC 26 March 2019
Temperature: 26.0°C (79°F)
Dewpoint: 9.0°C (48°F) [RH = 34%]
Pressure (altimeter): 29.94 inches Hg (1014.0 mb)
Winds: from the NW (320 degrees) at 10 MPH (9 knots; 4.6 m/s)
Visibility: 2.49 miles (4.01 km)
Ceiling: at least 12,000 feet AGL
Clouds: sky clear below 12,000 feet AGL
Weather: HZ  (haze)

METAR text: OPLA 260529Z 00000KT 4000 HZ NSC 23/08 Q1015 RMK QFE989 RMK A29.98
Conditions at: OPLA (LAHORE (CIV/MIL), PK) observed 0529 UTC 26 March 2019
Temperature: 23.0°C (73°F)
Dewpoint: 8.0°C (46°F) [RH = 38%]
Pressure (altimeter): 29.97 inches Hg (1015.0 mb)
Winds: calm
Visibility: 2.49 miles (4.01 km)
Ceiling: at least 12,000 feet AGL
Clouds: sky clear below 12,000 feet AGL
Weather: HZ  (haze)

METAR text: OPLA 260459Z 00000KT 4000 HZ NSC 21/10 Q1016 NOSIG RMK QFE990 RMK A29.98
Conditions at: OPLA (LAHORE (CIV/MIL), PK) observed 0459 UTC 26 March 2019
Temperature: 21.0°C (70°F)
Dewpoint: 10.0°C (50°F) [RH = 49%]
Pressure (altimeter): 30.00 inches Hg (1016.0 mb)
Winds: calm
Visibility: 2.49 miles (4.01 km)
Ceiling: at least 12,000 feet AGL
Clouds: sky clear below 12,000 feet AGL
Weather: HZ  (haze)

METAR text: OPLA 260355Z 16003KT 3500 FU NSC 18/11 Q1015 BECMG 4000 RMK QFE989 RMK A29.96
Conditions at: OPLA (LAHORE (CIV/MIL), PK) observed 0355 UTC 26 March 2019
Temperature: 18.0°C (64°F)
Dewpoint: 11.0°C (52°F) [RH = 64%]
Pressure (altimeter): 29.97 inches Hg (1015.0 mb)
Winds: from the SSE (160 degrees) at 3 MPH (3 knots; 1.5 m/s)
Visibility: 2.17 miles (3.49 km)
Ceiling: at least 12,000 feet AGL
Clouds: sky clear below 12,000 feet AGL
Weather: FU  (smoke)

METAR text: OPLA 260255Z 13005KT 2500 FU NSC 13/09 Q1015 BECMG 3000 RMK QFE989 RMK A29.95
Conditions at: OPLA (LAHORE (CIV/MIL), PK) observed 0255 UTC 26 March 2019
Temperature: 13.0°C (55°F)
Dewpoint: 9.0°C (48°F) [RH = 77%]
Pressure (altimeter): 29.97 inches Hg (1015.0 mb)
Winds: from the SE (130 degrees) at 6 MPH (5 knots; 2.6 m/s)
Visibility: 1.55 miles (2.49 km)
Ceiling: at least 12,000 feet AGL
Clouds: sky clear below 12,000 feet AGL
Weather: FU  (smoke)

METAR text: OPLA 260225Z 08003KT 2000 FU NSC 14/09 Q1015 RMK QFE989 RMK A29.94
Conditions at: OPLA (LAHORE (CIV/MIL), PK) observed 0225 UTC 26 March 2019
Temperature: 14.0°C (57°F)
Dewpoint: 9.0°C (48°F) [RH = 72%]
Pressure (altimeter): 29.97 inches Hg (1015.0 mb)
Winds: from the E (80 degrees) at 3 MPH (3 knots; 1.5 m/s)
Visibility: 1.24 miles (2.00 km)
Ceiling: at least 12,000 feet AGL
Clouds: sky clear below 12,000 feet AGL
Weather: FU  (smoke)

METAR text: OPLA 260155Z 12003KT 2000 FU NSC 13/09 Q1015 BECMG 1500 RMK QFE989 RMK A29.94
Conditions at: OPLA (LAHORE (CIV/MIL), PK) observed 0155 UTC 26 March 2019
Temperature: 13.0°C (55°F)
Dewpoint: 9.0°C (48°F) [RH = 77%]
Pressure (altimeter): 29.97 inches Hg (1015.0 mb)
Winds: from the ESE (120 degrees) at 3 MPH (3 knots; 1.5 m/s)
Visibility: 1.24 miles (2.00 km)
Ceiling: at least 12,000 feet AGL
Clouds: sky clear below 12,000 feet AGL
Weather: FU  (smoke)

METAR text: OPLA 260125Z 13003KT 2500 FU NSC 13/09 Q1014 RMK QFE989 RMK A29.93
Conditions at: OPLA (LAHORE (CIV/MIL), PK) observed 0125 UTC 26 March 2019
Temperature: 13.0°C (55°F)
Dewpoint: 9.0°C (48°F) [RH = 77%]
Pressure (altimeter): 29.94 inches Hg (1014.0 mb)
Winds: from the SE (130 degrees) at 3 MPH (3 knots; 1.5 m/s)
Visibility: 1.55 miles (2.49 km)
Ceiling: at least 12,000 feet AGL
Clouds: sky clear below 12,000 feet AGL
Weather: FU  (smoke)

METAR text: OPLA 260055Z 06003KT 3000 FU NSC 13/09 Q1014 BECMG 2000 RMK QFE988 RMK A29.93
Conditions at: OPLA (LAHORE (CIV/MIL), PK) observed 0055 UTC 26 March 2019
Temperature: 13.0°C (55°F)
Dewpoint: 9.0°C (48°F) [RH = 77%]
Pressure (altimeter): 29.94 inches Hg (1014.0 mb)
Winds: from the ENE (60 degrees) at 3 MPH (3 knots; 1.5 m/s)
Visibility: 1.86 miles (2.99 km)
Ceiling: at least 12,000 feet AGL
Clouds: sky clear below 12,000 feet AGL
Weather: FU  (smoke)

METAR text: OPLA 260025Z 13004KT 4000 FU NSC 14/11 Q1014 RMK QFE988 RMK A29.92
Conditions at: OPLA (LAHORE (CIV/MIL), PK) observed 0025 UTC 26 March 2019
Temperature: 14.0°C (57°F)
Dewpoint: 11.0°C (52°F) [RH = 82%]
Pressure (altimeter): 29.94 inches Hg (1014.0 mb)
Winds: from the SE (130 degrees) at 5 MPH (4 knots; 2.1 m/s)
Visibility: 2.49 miles (4.01 km)
Ceiling: at least 12,000 feet AGL
Clouds: sky clear below 12,000 feet AGL
Weather: FU  (smoke)

METAR text: OPLA 252355Z 11004KT 4000 FU NSC 15/11 Q1014 BECMG 3000 RMK QFE988 RMK A29.92
Conditions at: OPLA (LAHORE (CIV/MIL), PK) observed 2355 UTC 25 March 2019
Temperature: 15.0°C (59°F)
Dewpoint: 11.0°C (52°F) [RH = 77%]
Pressure (altimeter): 29.94 inches Hg (1014.0 mb)
Winds: from the ESE (110 degrees) at 5 MPH (4 knots; 2.1 m/s)
Visibility: 2.49 miles (4.01 km)
Ceiling: at least 12,000 feet AGL
Clouds: sky clear below 12,000 feet AGL
Weather: FU  (smoke)

METAR text: OPLA 252325Z 13003KT 4000 FU NSC 16/11 Q1013 RMK QFE988 RMK A29.94
Conditions at: OPLA (LAHORE (CIV/MIL), PK) observed 2325 UTC 25 March 2019
Temperature: 16.0°C (61°F)
Dewpoint: 11.0°C (52°F) [RH = 72%]
Pressure (altimeter): 29.91 inches Hg (1013.0 mb)
Winds: from the SE (130 degrees) at 3 MPH (3 knots; 1.5 m/s)
Visibility: 2.49 miles (4.01 km)
Ceiling: at least 12,000 feet AGL
Clouds: sky clear below 12,000 feet AGL
Weather: FU  (smoke)

METAR text: OPLA 252255Z 00000KT 4000 FU NSC 16/11 Q1014 NOSIG RMK QFE988 RMK A29.94
Conditions at: OPLA (LAHORE (CIV/MIL), PK) observed 2255 UTC 25 March 2019
Temperature: 16.0°C (61°F)
Dewpoint: 11.0°C (52°F) [RH = 72%]
Pressure (altimeter): 29.94 inches Hg (1014.0 mb)
Winds: calm
Visibility: 2.49 miles (4.01 km)
Ceiling: at least 12,000 feet AGL
Clouds: sky clear below 12,000 feet AGL
Weather: FU  (smoke)

METAR text: OPLA 252225Z 00000KT 4000 FU NSC 17/11 Q1014 RMK QFE988 RMK A29.91
Conditions at: OPLA (LAHORE (CIV/MIL), PK) observed 2225 UTC 25 March 2019
Temperature: 17.0°C (63°F)
Dewpoint: 11.0°C (52°F) [RH = 68%]
Pressure (altimeter): 29.94 inches Hg (1014.0 mb)
Winds: calm
Visibility: 2.49 miles (4.01 km)
Ceiling: at least 12,000 feet AGL
Clouds: sky clear below 12,000 feet AGL
Weather: FU  (smoke)

METAR text: OPLA 252155Z 00000KT 4000 FU NSC 17/11 Q1014 NOSIG RMK QFE988 RMK A29.91
Conditions at: OPLA (LAHORE (CIV/MIL), PK) observed 2155 UTC 25 March 2019
Temperature: 17.0°C (63°F)
Dewpoint: 11.0°C (52°F) [RH = 68%]
Pressure (altimeter): 29.94 inches Hg (1014.0 mb)
Winds: calm
Visibility: 2.49 miles (4.01 km)
Ceiling: at least 12,000 feet AGL
Clouds: sky clear below 12,000 feet AGL
Weather: FU  (smoke)

METAR text: OPLA 252125Z 00000KT 4000 FU NSC 17/12 Q1014 RMK QFE988 RMK A29.92
Conditions at: OPLA (LAHORE (CIV/MIL), PK) observed 2125 UTC 25 March 2019
Temperature: 17.0°C (63°F)
Dewpoint: 12.0°C (54°F) [RH = 72%]
Pressure (altimeter): 29.94 inches Hg (1014.0 mb)
Winds: calm
Visibility: 2.49 miles (4.01 km)
Ceiling: at least 12,000 feet AGL
Clouds: sky clear below 12,000 feet AGL
Weather: FU  (smoke)

METAR text: OPLA 252055Z 18003KT 4000 FU NSC 17/12 Q1014 NOSIG RMK QFE988 RMK A29.92
Conditions at: OPLA (LAHORE (CIV/MIL), PK) observed 2055 UTC 25 March 2019
Temperature: 17.0°C (63°F)
Dewpoint: 12.0°C (54°F) [RH = 72%]
Pressure (altimeter): 29.94 inches Hg (1014.0 mb)
Winds: from the S (180 degrees) at 3 MPH (3 knots; 1.5 m/s)
Visibility: 2.49 miles (4.01 km)
Ceiling: at least 12,000 feet AGL
Clouds: sky clear below 12,000 feet AGL
Weather: FU  (smoke)

METAR text: OPLA 252025Z 19003KT 4000 FU NSC 17/11 Q1014 RMK QFE988 RMK A29.92
Conditions at: OPLA (LAHORE (CIV/MIL), PK) observed 2025 UTC 25 March 2019
Temperature: 17.0°C (63°F)
Dewpoint: 11.0°C (52°F) [RH = 68%]
Pressure (altimeter): 29.94 inches Hg (1014.0 mb)
Winds: from the S (190 degrees) at 3 MPH (3 knots; 1.5 m/s)
Visibility: 2.49 miles (4.01 km)
Ceiling: at least 12,000 feet AGL
Clouds: sky clear below 12,000 feet AGL
Weather: FU  (smoke)

METAR text: OPLA 251955Z 16003KT 4000 FU NSC 18/13 Q1014 NOSIG RMK QFE988 RMK A29.92
Conditions at: OPLA (LAHORE (CIV/MIL), PK) observed 1955 UTC 25 March 2019
Temperature: 18.0°C (64°F)
Dewpoint: 13.0°C (55°F) [RH = 73%]
Pressure (altimeter): 29.94 inches Hg (1014.0 mb)
Winds: from the SSE (160 degrees) at 3 MPH (3 knots; 1.5 m/s)
Visibility: 2.49 miles (4.01 km)
Ceiling: at least 12,000 feet AGL
Clouds: sky clear below 12,000 feet AGL
Weather: FU  (smoke)

METAR text: OPLA 251925Z 19006KT 4000 FU NSC 19/13 Q1014 RMK QFE988 RMK A29.92
Conditions at: OPLA (LAHORE (CIV/MIL), PK) observed 1925 UTC 25 March 2019
Temperature: 19.0°C (66°F)
Dewpoint: 13.0°C (55°F) [RH = 68%]
Pressure (altimeter): 29.94 inches Hg (1014.0 mb)
Winds: from the S (190 degrees) at 7 MPH (6 knots; 3.1 m/s)
Visibility: 2.49 miles (4.01 km)
Ceiling: at least 12,000 feet AGL
Clouds: sky clear below 12,000 feet AGL
Weather: FU  (smoke)

METAR text: OPLA 251855Z 17003KT 4000 FU NSC 19/13 Q1014 NOSIG RMK QFE988 RMK A29.92
Conditions at: OPLA (LAHORE (CIV/MIL), PK) observed 1855 UTC 25 March 2019
Temperature: 19.0°C (66°F)
Dewpoint: 13.0°C (55°F) [RH = 68%]
Pressure (altimeter): 29.94 inches Hg (1014.0 mb)
Winds: from the S (170 degrees) at 3 MPH (3 knots; 1.5 m/s)
Visibility: 2.49 miles (4.01 km)
Ceiling: at least 12,000 feet AGL
Clouds: sky clear below 12,000 feet AGL
Weather: FU  (smoke)

METAR text: OPLA 251825Z 16003KT 4000 FU NSC 20/13 Q1014 RMK QFE988 RMK A29.92
Conditions at: OPLA (LAHORE (CIV/MIL), PK) observed 1825 UTC 25 March 2019
Temperature: 20.0°C (68°F)
Dewpoint: 13.0°C (55°F) [RH = 64%]
Pressure (altimeter): 29.94 inches Hg (1014.0 mb)
Winds: from the SSE (160 degrees) at 3 MPH (3 knots; 1.5 m/s)
Visibility: 2.49 miles (4.01 km)
Ceiling: at least 12,000 feet AGL
Clouds: sky clear below 12,000 feet AGL
Weather: FU  (smoke)

METAR text: OPLA 251755Z 14007KT 4000 FU NSC 20/13 Q1013 NOSIG RMK QFE988 RMK A29.92
Conditions at: OPLA (LAHORE (CIV/MIL), PK) observed 1755 UTC 25 March 2019
Temperature: 20.0°C (68°F)
Dewpoint: 13.0°C (55°F) [RH = 64%]
Pressure (altimeter): 29.91 inches Hg (1013.0 mb)
Winds: from the SE (140 degrees) at 8 MPH (7 knots; 3.6 m/s)
Visibility: 2.49 miles (4.01 km)
Ceiling: at least 12,000 feet AGL
Clouds: sky clear below 12,000 feet AGL
Weather: FU  (smoke)

METAR text: OPLA 251725Z 13004KT 4000 FU NSC 21/12 Q1014 RMK QFE988 RMK A29.94
Conditions at: OPLA (LAHORE (CIV/MIL), PK) observed 1725 UTC 25 March 2019
Temperature: 21.0°C (70°F)
Dewpoint: 12.0°C (54°F) [RH = 56%]
Pressure (altimeter): 29.94 inches Hg (1014.0 mb)
Winds: from the SE (130 degrees) at 5 MPH (4 knots; 2.1 m/s)
Visibility: 2.49 miles (4.01 km)
Ceiling: at least 12,000 feet AGL
Clouds: sky clear below 12,000 feet AGL
Weather: FU  (smoke)

METAR text: OPLA 251655Z 13004KT 4000 FU NSC 21/12 Q1014 NOSIG RMK QFE988 RMK A29.94
Conditions at: OPLA (LAHORE (CIV/MIL), PK) observed 1655 UTC 25 March 2019
Temperature: 21.0°C (70°F)
Dewpoint: 12.0°C (54°F) [RH = 56%]
Pressure (altimeter): 29.94 inches Hg (1014.0 mb)
Winds: from the SE (130 degrees) at 5 MPH (4 knots; 2.1 m/s)
Visibility: 2.49 miles (4.01 km)
Ceiling: at least 12,000 feet AGL
Clouds: sky clear below 12,000 feet AGL
Weather: FU  (smoke)

METAR text: OPLA 251625Z 13004KT 5000 FU NSC 22/12 Q1014 RMK QFE989 RMK A29.95
Conditions at: OPLA (LAHORE (CIV/MIL), PK) observed 1625 UTC 25 March 2019
Temperature: 22.0°C (72°F)
Dewpoint: 12.0°C (54°F) [RH = 53%]
Pressure (altimeter): 29.94 inches Hg (1014.0 mb)
Winds: from the SE (130 degrees) at 5 MPH (4 knots; 2.1 m/s)
Visibility: 3 miles ( 5 km)
Ceiling: at least 12,000 feet AGL
Clouds: sky clear below 12,000 feet AGL
Weather: FU  (smoke)

METAR text: OPLA 251555Z 00000KT 5000 FU NSC 22/12 Q1015 BECMG 4000 RMK QFE989 RMK A29.95
Conditions at: OPLA (LAHORE (CIV/MIL), PK) observed 1555 UTC 25 March 2019
Temperature: 22.0°C (72°F)
Dewpoint: 12.0°C (54°F) [RH = 53%]
Pressure (altimeter): 29.97 inches Hg (1015.0 mb)
Winds: calm
Visibility: 3 miles ( 5 km)
Ceiling: at least 12,000 feet AGL
Clouds: sky clear below 12,000 feet AGL
Weather: FU  (smoke)

METAR text: OPLA 251525Z 00000KT 6000 NSC 23/13 Q1014 RMK QFE988 RMK A29.92
Conditions at: OPLA (LAHORE (CIV/MIL), PK) observed 1525 UTC 25 March 2019
Temperature: 23.0°C (73°F)
Dewpoint: 13.0°C (55°F) [RH = 53%]
Pressure (altimeter): 29.94 inches Hg (1014.0 mb)
Winds: calm
Visibility: 4 miles ( 6 km)
Ceiling: at least 12,000 feet AGL
Clouds: sky clear below 12,000 feet AGL
Weather: no significant weather observed at this time

METAR text: OPLA 251455Z 12003KT 6000 NSC 23/13 Q1013 BECMG 5000 RMK QFE988 RMK A29.91
Conditions at: OPLA (LAHORE (CIV/MIL), PK) observed 1455 UTC 25 March 2019
Temperature: 23.0°C (73°F)
Dewpoint: 13.0°C (55°F) [RH = 53%]
Pressure (altimeter): 29.91 inches Hg (1013.0 mb)
Winds: from the ESE (120 degrees) at 3 MPH (3 knots; 1.5 m/s)
Visibility: 4 miles ( 6 km)
Ceiling: at least 12,000 feet AGL
Clouds: sky clear below 12,000 feet AGL
Weather: no significant weather observed at this time

METAR text: OPLA 251355Z 14005KT 6000 NSC 24/12 Q1012 NOSIG RMK QFE987 RMK A29.90
Conditions at: OPLA (LAHORE (CIV/MIL), PK) observed 1355 UTC 25 March 2019
Temperature: 24.0°C (75°F)
Dewpoint: 12.0°C (54°F) [RH = 47%]
Pressure (altimeter): 29.88 inches Hg (1012.0 mb)
Winds: from the SE (140 degrees) at 6 MPH (5 knots; 2.6 m/s)
Visibility: 4 miles ( 6 km)
Ceiling: at least 12,000 feet AGL
Clouds: sky clear below 12,000 feet AGL
Weather: no significant weather observed at this time

METAR text: OPLA 251325Z 12005KT 7000 NSC 26/11 Q1013 RMK QFE987 RMK A29.90
Conditions at: OPLA (LAHORE (CIV/MIL), PK) observed 1325 UTC 25 March 2019
Temperature: 26.0°C (79°F)
Dewpoint: 11.0°C (52°F) [RH = 39%]
Pressure (altimeter): 29.91 inches Hg (1013.0 mb)
Winds: from the ESE (120 degrees) at 6 MPH (5 knots; 2.6 m/s)
Visibility: 4 miles ( 7 km)
Ceiling: at least 12,000 feet AGL
Clouds: sky clear below 12,000 feet AGL
Weather: no significant weather observed at this time

METAR text: OPLA 251255Z 12003KT 7000 NSC 26/11 Q1013 BECMG 6000 RMK QFE987 RMK A29.90
Conditions at: OPLA (LAHORE (CIV/MIL), PK) observed 1255 UTC 25 March 2019
Temperature: 26.0°C (79°F)
Dewpoint: 11.0°C (52°F) [RH = 39%]
Pressure (altimeter): 29.91 inches Hg (1013.0 mb)
Winds: from the ESE (120 degrees) at 3 MPH (3 knots; 1.5 m/s)
Visibility: 4 miles ( 7 km)
Ceiling: at least 12,000 feet AGL
Clouds: sky clear below 12,000 feet AGL
Weather: no significant weather observed at this time

METAR text: OPLA 251225Z 12005KT 7000 FEW100 27/11 Q1012 RMK QFE987 RMK A29.87
Conditions at: OPLA (LAHORE (CIV/MIL), PK) observed 1225 UTC 25 March 2019
Temperature: 27.0°C (81°F)
Dewpoint: 11.0°C (52°F) [RH = 37%]
Pressure (altimeter): 29.88 inches Hg (1012.0 mb)
Winds: from the ESE (120 degrees) at 6 MPH (5 knots; 2.6 m/s)
Visibility: 4 miles ( 7 km)
Ceiling: at least 12,000 feet AGL
Clouds: few clouds at 10000 feet AGL
Weather: no significant weather observed at this time

METAR text: OPLA 251125Z 17003KT 7000 FEW100 29/11 Q1012 RMK QFE986 RMK A29.89
Conditions at: OPLA (LAHORE (CIV/MIL), PK) observed 1125 UTC 25 March 2019
Temperature: 29.0°C (84°F)
Dewpoint: 11.0°C (52°F) [RH = 33%]
Pressure (altimeter): 29.88 inches Hg (1012.0 mb)
Winds: from the S (170 degrees) at 3 MPH (3 knots; 1.5 m/s)
Visibility: 4 miles ( 7 km)
Ceiling: at least 12,000 feet AGL
Clouds: few clouds at 10000 feet AGL
Weather: no significant weather observed at this time

METAR text: OPLA 251055Z 33004KT 7000 FEW100 29/11 Q1012 NOSIG RMK QFE986 RMK A29.87
Conditions at: OPLA (LAHORE (CIV/MIL), PK) observed 1055 UTC 25 March 2019
Temperature: 29.0°C (84°F)
Dewpoint: 11.0°C (52°F) [RH = 33%]
Pressure (altimeter): 29.88 inches Hg (1012.0 mb)
Winds: from the NNW (330 degrees) at 5 MPH (4 knots; 2.1 m/s)
Visibility: 4 miles ( 7 km)
Ceiling: at least 12,000 feet AGL
Clouds: few clouds at 10000 feet AGL
Weather: no significant weather observed at this time

METAR text: OPLA 251025Z 33004KT 7000 FEW100 29/12 Q1012 RMK QFE986 RMK A29.89
Conditions at: OPLA (LAHORE (CIV/MIL), PK) observed 1025 UTC 25 March 2019
Temperature: 29.0°C (84°F)
Dewpoint: 12.0°C (54°F) [RH = 35%]
Pressure (altimeter): 29.88 inches Hg (1012.0 mb)
Winds: from the NNW (330 degrees) at 5 MPH (4 knots; 2.1 m/s)
Visibility: 4 miles ( 7 km)
Ceiling: at least 12,000 feet AGL
Clouds: few clouds at 10000 feet AGL
Weather: no significant weather observed at this time

METAR text: OPLA 250955Z 32004KT 7000 FEW100 29/12 Q1012 NOSIG RMK QFE986 RMK A29.89
Conditions at: OPLA (LAHORE (CIV/MIL), PK) observed 0955 UTC 25 March 2019
Temperature: 29.0°C (84°F)
Dewpoint: 12.0°C (54°F) [RH = 35%]
Pressure (altimeter): 29.88 inches Hg (1012.0 mb)
Winds: from the NW (320 degrees) at 5 MPH (4 knots; 2.1 m/s)
Visibility: 4 miles ( 7 km)
Ceiling: at least 12,000 feet AGL
Clouds: few clouds at 10000 feet AGL
Weather: no significant weather observed at this time

METAR text: OPLA 250855Z 00000KT 7000 SCT100 28/14 Q1013 BECMG 8000 RMK QFE987 RMK A29.91
Conditions at: OPLA (LAHORE (CIV/MIL), PK) observed 0855 UTC 25 March 2019
Temperature: 28.0°C (82°F)
Dewpoint: 14.0°C (57°F) [RH = 42%]
Pressure (altimeter): 29.91 inches Hg (1013.0 mb)
Winds: calm
Visibility: 4 miles ( 7 km)
Ceiling: at least 12,000 feet AGL
Clouds: scattered clouds at 10000 feet AGL
Weather: no significant weather observed at this time

METAR text: OPLA 250825Z 32003KT 6000 FEW040 SCT100 26/13 Q1014 RMK QFE988 RMK A29.94
Conditions at: OPLA (LAHORE (CIV/MIL), PK) observed 0825 UTC 25 March 2019
Temperature: 26.0°C (79°F)
Dewpoint: 13.0°C (55°F) [RH = 45%]
Pressure (altimeter): 29.94 inches Hg (1014.0 mb)
Winds: from the NW (320 degrees) at 3 MPH (3 knots; 1.5 m/s)
Visibility: 4 miles ( 6 km)
Ceiling: at least 12,000 feet AGL
Clouds: few clouds at 4000 feet AGL
scattered clouds at 10000 feet AGL
Weather: no significant weather observed at this time

METAR text: OPLA 250755Z 31003KT 6000 SCT200 26/13 Q1014 BECMG 7000 RMK QFE988 RMK A29.94
Conditions at: OPLA (LAHORE (CIV/MIL), PK) observed 0755 UTC 25 March 2019
Temperature: 26.0°C (79°F)
Dewpoint: 13.0°C (55°F) [RH = 45%]
Pressure (altimeter): 29.94 inches Hg (1014.0 mb)
Winds: from the NW (310 degrees) at 3 MPH (3 knots; 1.5 m/s)
Visibility: 4 miles ( 6 km)
Ceiling: at least 12,000 feet AGL
Clouds: scattered clouds at 20000 feet AGL
Weather: no significant weather observed at this time

METAR text: OPLA 250725Z 32005KT 6000 SCT040 BKN100 25/13 Q1014 RMK QFE988 RMK A29.94
Conditions at: OPLA (LAHORE (CIV/MIL), PK) observed 0725 UTC 25 March 2019
Temperature: 25.0°C (77°F)
Dewpoint: 13.0°C (55°F) [RH = 47%]
Pressure (altimeter): 29.94 inches Hg (1014.0 mb)
Winds: from the NW (320 degrees) at 6 MPH (5 knots; 2.6 m/s)
Visibility: 4 miles ( 6 km)
Ceiling: 10000 feet AGL
Clouds: scattered clouds at 4000 feet AGL
broken clouds at 10000 feet AGL
Weather: no significant weather observed at this time

METAR text: OPLA 250655Z 36005KT 6000 SCT040 BKN100 24/13 Q1014 BECMG 7000 RMK QFE988 RMK A29.94
Conditions at: OPLA (LAHORE (CIV/MIL), PK) observed 0655 UTC 25 March 2019
Temperature: 24.0°C (75°F)
Dewpoint: 13.0°C (55°F) [RH = 50%]
Pressure (altimeter): 29.94 inches Hg (1014.0 mb)
Winds: from the N (360 degrees) at 6 MPH (5 knots; 2.6 m/s)
Visibility: 4 miles ( 6 km)
Ceiling: 10000 feet AGL
Clouds: scattered clouds at 4000 feet AGL
broken clouds at 10000 feet AGL
Weather: no significant weather observed at this time

METAR text: OPLA 250625Z 35007KT 5000 FU SCT040 BKN100 24/13 Q1014 RMK QFE988 RMK A29.95
Conditions at: OPLA (LAHORE (CIV/MIL), PK) observed 0625 UTC 25 March 2019
Temperature: 24.0°C (75°F)
Dewpoint: 13.0°C (55°F) [RH = 50%]
Pressure (altimeter): 29.94 inches Hg (1014.0 mb)
Winds: from the N (350 degrees) at 8 MPH (7 knots; 3.6 m/s)
Visibility: 3 miles ( 5 km)
Ceiling: 10000 feet AGL
Clouds: scattered clouds at 4000 feet AGL
broken clouds at 10000 feet AGL
Weather: FU  (smoke)

METAR text: OPLA 250555Z 31007KT 5000 FU SCT040 BKN100 22/13 Q1014 BECMG 6000 RMK QFE989 RMK A29.95
Conditions at: OPLA (LAHORE (CIV/MIL), PK) observed 0555 UTC 25 March 2019
Temperature: 22.0°C (72°F)
Dewpoint: 13.0°C (55°F) [RH = 57%]
Pressure (altimeter): 29.94 inches Hg (1014.0 mb)
Winds: from the NW (310 degrees) at 8 MPH (7 knots; 3.6 m/s)
Visibility: 3 miles ( 5 km)
Ceiling: 10000 feet AGL
Clouds: scattered clouds at 4000 feet AGL
broken clouds at 10000 feet AGL
Weather: FU  (smoke)

METAR text: OPLA 250525Z 29006KT 4000 FU SCT040 BKN100 21/13 Q1014 RMK QFE989 RMK A29.95
Conditions at: OPLA (LAHORE (CIV/MIL), PK) observed 0525 UTC 25 March 2019
Temperature: 21.0°C (70°F)
Dewpoint: 13.0°C (55°F) [RH = 60%]
Pressure (altimeter): 29.94 inches Hg (1014.0 mb)
Winds: from the WNW (290 degrees) at 7 MPH (6 knots; 3.1 m/s)
Visibility: 2.49 miles (4.01 km)
Ceiling: 10000 feet AGL
Clouds: scattered clouds at 4000 feet AGL
broken clouds at 10000 feet AGL
Weather: FU  (smoke)

METAR text: OPLA 250455Z 30008KT 4000 FU SCT040 BKN100 20/13 Q1014 BECMG 5000 RMK QFE989 RMK A29.95
Conditions at: OPLA (LAHORE (CIV/MIL), PK) observed 0455 UTC 25 March 2019
Temperature: 20.0°C (68°F)
Dewpoint: 13.0°C (55°F) [RH = 64%]
Pressure (altimeter): 29.94 inches Hg (1014.0 mb)
Winds: from the WNW (300 degrees) at 9 MPH (8 knots; 4.1 m/s)
Visibility: 2.49 miles (4.01 km)
Ceiling: 10000 feet AGL
Clouds: scattered clouds at 4000 feet AGL
broken clouds at 10000 feet AGL
Weather: FU  (smoke)

METAR text: OPLA 250425Z 29009KT 3500 FU SCT040 BKN100 20/12 Q1014 RMK QFE989 RMK A29.93
Conditions at: OPLA (LAHORE (CIV/MIL), PK) observed 0425 UTC 25 March 2019
Temperature: 20.0°C (68°F)
Dewpoint: 12.0°C (54°F) [RH = 60%]
Pressure (altimeter): 29.94 inches Hg (1014.0 mb)
Winds: from the WNW (290 degrees) at 10 MPH (9 knots; 4.6 m/s)
Visibility: 2.17 miles (3.49 km)
Ceiling: 10000 feet AGL
Clouds: scattered clouds at 4000 feet AGL
broken clouds at 10000 feet AGL
Weather: FU  (smoke)

METAR text: OPLA 250355Z 29011KT 3000 FU SCT040 BKN100 19/12 Q1014 BECMG 4000 RMK QFE988 RMK A29.93
Conditions at: OPLA (LAHORE (CIV/MIL), PK) observed 0355 UTC 25 March 2019
Temperature: 19.0°C (66°F)
Dewpoint: 12.0°C (54°F) [RH = 64%]
Pressure (altimeter): 29.94 inches Hg (1014.0 mb)
Winds: from the WNW (290 degrees) at 13 MPH (11 knots; 5.7 m/s)
Visibility: 1.86 miles (2.99 km)
Ceiling: 10000 feet AGL
Clouds: scattered clouds at 4000 feet AGL
broken clouds at 10000 feet AGL
Weather: FU  (smoke)

METAR text: OPLA 250325Z 29008KT 2500 BR SCT040 BKN100 17/13 Q1014 RMK QFE988 RMK A29.94
Conditions at: OPLA (LAHORE (CIV/MIL), PK) observed 0325 UTC 25 March 2019
Temperature: 17.0°C (63°F)
Dewpoint: 13.0°C (55°F) [RH = 77%]
Pressure (altimeter): 29.94 inches Hg (1014.0 mb)
Winds: from the WNW (290 degrees) at 9 MPH (8 knots; 4.1 m/s)
Visibility: 1.55 miles (2.49 km)
Ceiling: 10000 feet AGL
Clouds: scattered clouds at 4000 feet AGL
broken clouds at 10000 feet AGL
Weather: BR  (mist)

METAR text: OPLA 250255Z 27005KT 2500 BR SCT040 BKN100 16/13 Q1014 BECMG 3000 RMK QFE988 RMK A29.94
Conditions at: OPLA (LAHORE (CIV/MIL), PK) observed 0255 UTC 25 March 2019
Temperature: 16.0°C (61°F)
Dewpoint: 13.0°C (55°F) [RH = 82%]
Pressure (altimeter): 29.94 inches Hg (1014.0 mb)
Winds: from the W (270 degrees) at 6 MPH (5 knots; 2.6 m/s)
Visibility: 1.55 miles (2.49 km)
Ceiling: 10000 feet AGL
Clouds: scattered clouds at 4000 feet AGL
broken clouds at 10000 feet AGL
Weather: BR  (mist)

METAR text: OPLA 250225Z 23005KT 2000 BR SCT040 BKN100 15/12 Q1014 RMK QFE988 RMK A29.92
Conditions at: OPLA (LAHORE (CIV/MIL), PK) observed 0225 UTC 25 March 2019
Temperature: 15.0°C (59°F)
Dewpoint: 12.0°C (54°F) [RH = 82%]
Pressure (altimeter): 29.94 inches Hg (1014.0 mb)
Winds: from the SW (230 degrees) at 6 MPH (5 knots; 2.6 m/s)
Visibility: 1.24 miles (2.00 km)
Ceiling: 10000 feet AGL
Clouds: scattered clouds at 4000 feet AGL
broken clouds at 10000 feet AGL
Weather: BR  (mist)

METAR text: OPLA 250155Z 29004KT 2500 BR SCT040 BKN100 15/12 Q1013 BECMG 2000 RMK QFE988 RMK A29.91
Conditions at: OPLA (LAHORE (CIV/MIL), PK) observed 0155 UTC 25 March 2019
Temperature: 15.0°C (59°F)
Dewpoint: 12.0°C (54°F) [RH = 82%]
Pressure (altimeter): 29.91 inches Hg (1013.0 mb)
Winds: from the WNW (290 degrees) at 5 MPH (4 knots; 2.1 m/s)
Visibility: 1.55 miles (2.49 km)
Ceiling: 10000 feet AGL
Clouds: scattered clouds at 4000 feet AGL
broken clouds at 10000 feet AGL
Weather: BR  (mist)

METAR text: OPLA 250125Z 24003KT 3000 BR SCT040 SCT100 14/12 Q1013 BECMG 2000 RMK QFE987 RMK A29.91
Conditions at: OPLA (LAHORE (CIV/MIL), PK) observed 0125 UTC 25 March 2019
Temperature: 14.0°C (57°F)
Dewpoint: 12.0°C (54°F) [RH = 88%]
Pressure (altimeter): 29.91 inches Hg (1013.0 mb)
Winds: from the WSW (240 degrees) at 3 MPH (3 knots; 1.5 m/s)
Visibility: 1.86 miles (2.99 km)
Ceiling: at least 12,000 feet AGL
Clouds: scattered clouds at 4000 feet AGL
scattered clouds at 10000 feet AGL
Weather: BR  (mist)

METAR text: OPLA 250055Z 00000KT 3500 FU SCT040 SCT100 14/12 Q1013 BECMG 3000 BR RMK QFE987 RMK A29.91
Conditions at: OPLA (LAHORE (CIV/MIL), PK) observed 0055 UTC 25 March 2019
Temperature: 14.0°C (57°F)
Dewpoint: 12.0°C (54°F) [RH = 88%]
Pressure (altimeter): 29.91 inches Hg (1013.0 mb)
Winds: calm
Visibility: 2.17 miles (3.49 km)
Ceiling: at least 12,000 feet AGL
Clouds: scattered clouds at 4000 feet AGL
scattered clouds at 10000 feet AGL
Weather: FU  (smoke)

METAR text: OPLA 250025Z 00000KT 4000 FU SCT040 SCT100 14/12 Q1013 RMK QFE987 RMK A29.90
Conditions at: OPLA (LAHORE (CIV/MIL), PK) observed 0025 UTC 25 March 2019
Temperature: 14.0°C (57°F)
Dewpoint: 12.0°C (54°F) [RH = 88%]
Pressure (altimeter): 29.91 inches Hg (1013.0 mb)
Winds: calm
Visibility: 2.49 miles (4.01 km)
Ceiling: at least 12,000 feet AGL
Clouds: scattered clouds at 4000 feet AGL
scattered clouds at 10000 feet AGL
Weather: FU  (smoke)

Forecast for: OPLA (LAHORE (CIV/MIL), PK)
Text: TAF OPLA 260945Z 2612/2718 31008KT 4000 FU NSC TX30/2710Z TN14/2701Z
Forecast period: 1200 UTC 26 March 2019 to 1800 UTC 27 March 2019
Forecast type: FROM: standard forecast or significant change
Winds: from the NW (310 degrees) at 9 MPH (8 knots; 4.1 m/s)
Visibility: 2.49 miles (4.01 km)
Ceiling: unknown
Clouds: missing
Weather: FU  (smoke)
Text: TEMPO 2701/2704 VRB02KT 1500 FU
Forecast period: 0100 to 0400 UTC 27 March 2019
Forecast type: TEMPORARY: The following changes expected for less than half the time period
Winds: variable direction winds at 2 MPH (2 knots; 1.0 m/s)
Visibility: 0.93 miles (1.50 km)
Ceiling: unknown
Clouds: missing
Weather: FU  (smoke)